Time;durP1;ratioP1;P1;durP2;ratioP2;P2;SDS_P1;SDS_P2;PMS_P1;PMS_P2;Temp;Humidity;BMP_temperature;BMP_pressure;BME280_temperature;BME280_humidity;BME280_pressure;Samples;Min_cycle;Max_cycle;Signal;HPM_P1;HPM_P2
2023/04/28 00:00:28;;;;;;;2.22;2.03;;;;;;;20.88;34.26;101730.81;5066972;28;20033;-65
2023/04/28 00:02:53;;;;;;;1.70;1.60;;;;;;;20.85;34.56;101731.13;5063545;28;20044;-65
2023/04/28 00:05:21;;;;;;;1.63;1.50;;;;;;;20.81;34.44;101727.97;5067935;28;20048;-65
2023/04/28 00:07:47;;;;;;;1.92;1.80;;;;;;;20.88;34.45;101722.88;5061634;28;20050;-65
2023/04/28 00:10:13;;;;;;;2.05;1.63;;;;;;;20.80;34.41;101727.13;5046731;28;20661;-65
2023/04/28 00:12:38;;;;;;;2.22;1.70;;;;;;;20.81;34.59;101722.69;5066626;28;20048;-65
2023/04/28 00:15:04;;;;;;;1.65;1.55;;;;;;;20.81;34.46;101720.03;5063748;28;20074;-65
2023/04/28 00:17:29;;;;;;;2.13;1.63;;;;;;;20.86;34.47;101719.56;5062109;28;20029;-65
2023/04/28 00:19:55;;;;;;;2.67;2.03;;;;;;;20.94;34.31;101719.53;5065010;28;20062;-65
2023/04/28 00:22:20;;;;;;;2.05;1.85;;;;;;;20.83;34.57;101709.31;5069262;28;20063;-64
2023/04/28 00:24:46;;;;;;;1.90;1.80;;;;;;;20.81;34.45;101701.50;5062590;28;20089;-66
2023/04/28 00:27:12;;;;;;;1.70;1.60;;;;;;;20.80;34.42;101692.72;5068799;28;20044;-65
2023/04/28 00:29:37;;;;;;;2.97;1.80;;;;;;;20.73;34.74;101688.28;5034781;28;20044;-65
2023/04/28 00:32:03;;;;;;;2.13;1.58;;;;;;;20.79;34.39;101692.91;5066037;28;20043;-65
2023/04/28 00:34:32;;;;;;;1.80;1.70;;;;;;;20.73;34.70;101693.56;5063954;28;20045;-65
2023/04/28 00:36:57;;;;;;;1.85;1.65;;;;;;;20.76;34.63;101686.13;5050986;28;20046;-65
2023/04/28 00:39:25;;;;;;;2.15;1.90;;;;;;;20.78;34.33;101681.47;5067878;28;20032;-66
2023/04/28 00:41:51;;;;;;;1.58;1.48;;;;;;;20.77;34.39;101685.13;5069798;28;20045;-65
2023/04/28 00:44:16;;;;;;;2.20;1.95;;;;;;;20.80;34.54;101678.66;5065046;28;20048;-65
2023/04/28 00:46:42;;;;;;;2.53;1.67;;;;;;;20.73;34.69;101670.56;5066040;28;20059;-66
2023/04/28 00:49:08;;;;;;;1.92;1.70;;;;;;;20.69;34.63;101663.97;5060884;28;20052;-64
2023/04/28 00:51:33;;;;;;;2.35;1.80;;;;;;;20.73;34.53;101659.16;5061523;28;20036;-64
2023/04/28 00:53:59;;;;;;;1.88;1.60;;;;;;;20.67;34.63;101642.13;5063906;28;20093;-65
2023/04/28 01:00:19;;;;;;;1.67;1.58;;;;;;;20.72;34.41;101654.84;5066164;28;20185;-65
2023/04/28 01:02:46;;;;;;;2.65;1.65;;;;;;;20.76;34.44;101648.25;5047406;28;20033;-65
2023/04/28 01:05:13;;;;;;;1.85;1.75;;;;;;;20.72;34.56;101642.44;5049887;28;20040;-65
2023/04/28 01:07:38;;;;;;;2.25;1.50;;;;;;;20.77;34.39;101631.34;5048253;28;20072;-65
2023/04/28 01:10:06;;;;;;;1.95;1.75;;;;;;;20.72;34.45;101629.22;5041161;28;21008;-66
2023/04/28 01:12:33;;;;;;;1.88;1.65;;;;;;;20.71;34.44;101616.97;5045517;28;20036;-65
2023/04/28 01:14:58;;;;;;;1.73;1.63;;;;;;;20.76;34.48;101619.94;5067670;28;20036;-65
2023/04/28 01:17:24;;;;;;;2.15;1.80;;;;;;;20.74;34.44;101616.63;5043891;28;20465;-65
2023/04/28 01:19:51;;;;;;;2.58;1.80;;;;;;;20.67;34.62;101617.50;5064051;28;20051;-65
2023/04/28 01:22:17;;;;;;;2.13;1.70;;;;;;;20.74;34.48;101621.94;5046993;28;20047;-65
2023/04/28 01:24:43;;;;;;;1.83;1.73;;;;;;;20.74;34.54;101616.63;5063895;28;20051;-66
2023/04/28 01:27:10;;;;;;;1.70;1.60;;;;;;;20.67;34.41;101615.66;5048196;28;20136;-65
2023/04/28 01:29:38;;;;;;;3.15;1.80;;;;;;;20.69;34.57;101618.97;5045544;28;21438;-66
2023/04/28 01:32:04;;;;;;;3.08;1.70;;;;;;;20.65;34.52;101615.00;5045868;28;20028;-65
2023/04/28 01:34:29;;;;;;;1.80;1.70;;;;;;;20.66;34.66;101610.53;5064418;28;20041;-66
2023/04/28 01:36:55;;;;;;;3.30;1.80;;;;;;;20.70;34.33;101604.75;5046667;28;20082;-65
2023/04/28 01:39:20;;;;;;;2.10;1.70;;;;;;;20.64;34.54;101609.84;5047832;28;20059;-65
2023/04/28 01:41:46;;;;;;;1.70;1.60;;;;;;;20.46;34.63;101570.34;5066945;28;20425;-65
2023/04/28 01:44:12;;;;;;;1.75;1.65;;;;;;;20.64;34.59;101609.84;5068033;28;20043;-67
2023/04/28 01:46:37;;;;;;;2.25;1.80;;;;;;;20.62;34.43;101604.72;5061186;28;20041;-65
2023/04/28 01:49:03;;;;;;;2.88;1.70;;;;;;;20.65;34.54;101603.59;5062125;28;20047;-65
2023/04/28 01:51:30;;;;;;;2.17;1.75;;;;;;;20.58;34.53;101586.72;5064177;28;20058;-65
2023/04/28 01:53:56;;;;;;;2.10;1.50;;;;;;;20.45;34.49;101560.75;5043423;28;20036;-65
2023/04/28 01:56:22;;;;;;;1.80;1.67;;;;;;;20.70;34.43;101582.75;5046801;28;20078;-65
2023/04/28 01:58:49;;;;;;;1.83;1.58;;;;;;;20.62;34.51;101567.69;5044845;28;20143;-65
2023/04/28 02:01:15;;;;;;;1.90;1.67;;;;;;;20.70;34.16;101565.03;5049179;28;20036;-65
2023/04/28 02:03:41;;;;;;;1.75;1.65;;;;;;;20.65;34.58;101563.91;5044263;28;20098;-66
2023/04/28 02:06:07;;;;;;;1.70;1.60;;;;;;;20.68;34.50;101551.16;5063697;28;20037;-65
2023/04/28 02:08:34;;;;;;;2.10;1.80;;;;;;;20.66;34.38;101544.38;5045091;28;20060;-65
2023/04/28 02:11:00;;;;;;;2.05;1.75;;;;;;;20.53;34.60;101542.25;5064948;28;20052;-65
2023/04/28 02:13:26;;;;;;;1.88;1.77;;;;;;;20.66;34.56;101539.91;5062593;28;20534;-65
2023/04/28 02:15:52;;;;;;;1.88;1.73;;;;;;;20.58;34.65;101531.16;5066410;28;20129;-65
2023/04/28 02:18:19;;;;;;;2.75;1.83;;;;;;;20.55;34.70;101527.03;5046986;28;20589;-66
2023/04/28 02:20:45;;;;;;;2.22;2.03;;;;;;;20.63;34.42;101526.16;5062863;28;20033;-65
2023/04/28 02:23:10;;;;;;;3.42;2.00;;;;;;;20.59;34.57;101517.75;5065419;28;20039;-65
2023/04/28 02:25:36;;;;;;;2.90;1.98;;;;;;;20.60;34.53;101510.63;5048335;28;20055;-65
2023/04/28 02:28:02;;;;;;;2.10;1.90;;;;;;;20.69;34.27;101510.47;5065613;28;20044;-65
2023/04/28 02:30:28;;;;;;;2.45;1.90;;;;;;;20.59;34.57;101507.16;5065675;28;20028;-65
2023/04/28 02:32:54;;;;;;;2.10;1.80;;;;;;;20.57;34.54;101498.56;5064975;28;20067;-65
2023/04/28 02:35:20;;;;;;;4.35;2.03;;;;;;;20.55;34.67;101494.44;5062753;28;20090;-65
2023/04/28 02:37:46;;;;;;;3.55;1.98;;;;;;;20.58;34.56;101491.47;5062079;28;20044;-66
2023/04/28 02:40:11;;;;;;;2.17;1.98;;;;;;;20.61;34.55;101491.13;5067571;28;20033;-65
2023/04/28 02:42:37;;;;;;;2.42;2.05;;;;;;;20.53;34.59;101489.31;5063488;28;20417;-65
2023/04/28 02:45:03;;;;;;;2.00;1.80;;;;;;;20.55;34.55;101479.41;5063598;28;20052;-65
2023/04/28 02:47:28;;;;;;;1.65;1.55;;;;;;;20.56;34.44;101488.16;5048147;28;20547;-66
2023/04/28 02:49:54;;;;;;;1.85;1.70;;;;;;;20.57;34.56;101476.56;5045052;28;20052;-65
2023/04/28 02:52:20;;;;;;;2.00;1.80;;;;;;;20.57;34.62;101485.34;5046650;28;20036;-65
2023/04/28 02:54:47;;;;;;;2.22;1.80;;;;;;;20.56;34.58;101475.75;5060193;28;20043;-66
2023/04/28 02:57:14;;;;;;;2.47;1.85;;;;;;;20.50;34.56;101471.13;5046261;28;20771;-65
2023/04/28 02:59:39;;;;;;;2.40;1.98;;;;;;;20.53;34.63;101470.81;5045955;28;20032;-65
2023/04/28 03:02:05;;;;;;;2.33;2.00;;;;;;;20.46;34.67;101467.97;5065287;28;20048;-65
2023/04/28 03:04:31;;;;;;;3.67;2.28;;;;;;;20.50;34.53;101461.38;5045758;28;20390;-65
2023/04/28 03:06:57;;;;;;;3.00;1.98;;;;;;;20.56;34.64;101467.81;5045273;28;20033;-65
2023/04/28 03:09:22;;;;;;;2.25;2.05;;;;;;;20.57;34.51;101469.47;5062146;28;20048;-65
2023/04/28 03:11:48;;;;;;;3.28;1.83;;;;;;;20.48;34.68;101466.03;5061709;28;20044;-65
2023/04/28 03:14:13;;;;;;;2.72;1.98;;;;;;;20.54;34.51;101468.97;5034861;28;20060;-65
2023/04/28 03:16:39;;;;;;;2.28;1.90;;;;;;;20.47;34.54;101464.38;5062544;28;20361;-65
2023/04/28 03:19:04;;;;;;;3.63;2.20;;;;;;;20.52;34.57;101462.03;5064273;28;20543;-65
2023/04/28 03:21:31;;;;;;;3.42;2.63;;;;;;;20.51;34.65;101456.91;5062917;28;20489;-65
2023/04/28 03:23:57;;;;;;;3.25;1.90;;;;;;;20.59;34.42;101450.75;5044856;28;20075;-65
2023/04/28 03:26:23;;;;;;;2.38;1.80;;;;;;;20.48;34.66;101436.91;5048217;28;20028;-66
2023/04/28 03:28:50;;;;;;;2.50;2.30;;;;;;;20.50;34.57;101429.63;5040903;28;20533;-65
2023/04/28 03:31:16;;;;;;;1.83;1.73;;;;;;;20.45;34.67;101421.34;5030665;28;20586;-65
2023/04/28 03:33:44;;;;;;;2.67;1.83;;;;;;;20.48;34.51;101415.75;5043987;28;20040;-66
2023/04/28 03:36:10;;;;;;;2.30;2.03;;;;;;;20.56;34.51;101411.41;5037735;28;20548;-66
2023/04/28 03:38:36;;;;;;;3.17;2.30;;;;;;;20.48;34.51;101407.81;5041555;28;20025;-66
2023/04/28 03:41:01;;;;;;;2.17;1.98;;;;;;;20.45;34.67;101404.66;5047186;28;20410;-65
2023/04/28 03:43:27;;;;;;;2.63;2.00;;;;;;;20.37;34.52;101389.63;5062232;28;20501;-66
2023/04/28 03:46:18;;;;;;;4.35;2.47;;;;;;;20.50;34.60;101405.00;5048935;28;20111;-65
2023/04/28 03:48:45;;;;;;;2.33;1.98;;;;;;;20.47;34.67;101405.34;5044220;28;20040;-66
2023/04/28 03:51:11;;;;;;;2.33;1.90;;;;;;;20.42;34.64;101410.28;5056877;28;20041;-65
2023/04/28 03:53:36;;;;;;;2.90;2.70;;;;;;;20.42;34.69;101391.78;5049512;28;20099;-66
2023/04/28 03:56:03;;;;;;;2.67;2.10;;;;;;;20.41;34.69;101392.78;5046880;28;20119;-65
2023/04/28 03:58:29;;;;;;;2.53;2.33;;;;;;;20.46;34.75;101393.91;5047329;28;20116;-65
2023/04/28 04:00:54;;;;;;;2.10;1.95;;;;;;;20.42;34.69;101392.59;5064151;28;20032;-65
2023/04/28 04:03:21;;;;;;;2.35;2.10;;;;;;;20.40;34.72;101394.56;5062537;28;20508;-65
2023/04/28 04:05:47;;;;;;;2.35;1.92;;;;;;;20.36;34.79;101401.19;5047428;28;20040;-66
2023/04/28 04:08:13;;;;;;;2.33;2.00;;;;;;;20.46;34.55;101395.72;5064699;28;20064;-66
2023/04/28 04:10:38;;;;;;;2.88;2.05;;;;;;;20.43;34.60;101396.06;5065416;28;20075;-66
2023/04/28 04:13:04;;;;;;;3.08;2.10;;;;;;;20.40;34.65;101401.69;5049252;28;20036;-66
2023/04/28 04:15:29;;;;;;;2.88;2.30;;;;;;;20.38;34.72;101404.50;5069231;28;20044;-67
2023/04/28 04:17:56;;;;;;;2.40;1.90;;;;;;;20.45;34.49;101389.63;5047331;28;20050;-65
2023/04/28 04:20:23;;;;;;;2.20;2.00;;;;;;;20.41;34.70;101390.94;5051143;28;20037;-65
2023/04/28 04:22:48;;;;;;;2.55;2.13;;;;;;;20.38;34.79;101391.28;5054592;28;20044;-66
2023/04/28 04:25:14;;;;;;;2.90;2.15;;;;;;;20.42;34.64;101387.31;5051663;28;20037;-66
2023/04/28 04:27:41;;;;;;;2.42;2.00;;;;;;;20.40;34.67;101386.63;5038754;28;20545;-65
2023/04/28 04:30:07;;;;;;;2.78;2.25;;;;;;;20.40;34.70;101378.69;5033365;28;20041;-65
2023/04/28 04:32:35;;;;;;;2.63;2.30;;;;;;;20.45;34.48;101380.84;5050565;28;20043;-66
2023/04/28 04:35:01;;;;;;;3.03;2.33;;;;;;;20.40;34.58;101383.16;5069486;28;20032;-66
2023/04/28 04:37:26;;;;;;;2.78;2.03;;;;;;;20.35;34.65;101374.91;5064878;28;20068;-65
2023/04/28 04:39:56;;;;;;;;;;;;;;;20.37;34.72;101372.94;5054967;28;20180;-64
2023/04/28 04:42:23;;;;;;;2.17;1.98;;;;;;;20.36;34.69;101377.38;5045809;28;20286;-65
2023/04/28 04:44:59;;;;;;;2.50;2.30;;;;;;;20.35;34.67;101373.09;5050133;28;20040;-65
2023/04/28 04:47:28;;;;;;;2.50;2.30;;;;;;;20.36;34.74;101363.34;5066949;28;20535;-66
2023/04/28 04:49:53;;;;;;;3.05;2.50;;;;;;;20.39;34.55;101355.06;5049272;28;20033;-66
2023/04/28 04:52:19;;;;;;;2.95;2.40;;;;;;;20.41;34.47;101348.63;5043145;28;20039;-67
2023/04/28 04:54:45;;;;;;;2.67;2.25;;;;;;;20.32;34.67;101343.53;5066159;28;20036;-66
2023/04/28 04:57:12;;;;;;;3.42;2.30;;;;;;;20.34;34.67;101336.25;5047644;28;20493;-65
2023/04/28 04:59:57;;;;;;;3.80;2.20;;;;;;;20.35;34.64;101330.78;5065184;28;20044;-65
2023/04/28 05:02:23;;;;;;;2.70;2.50;;;;;;;20.31;34.84;101337.41;5047796;28;20063;-67
2023/04/28 05:04:49;;;;;;;2.20;1.95;;;;;;;20.32;34.69;101332.94;5050058;28;20462;-65
2023/04/28 05:07:15;;;;;;;3.15;2.40;;;;;;;20.32;34.74;101325.00;5048827;28;20041;-64
2023/04/28 05:09:41;;;;;;;2.45;2.00;;;;;;;20.32;34.61;101330.31;5049608;28;20045;-65
2023/04/28 05:12:07;;;;;;;2.58;2.10;;;;;;;20.25;34.82;101321.38;5046185;28;20083;-65
2023/04/28 05:14:32;;;;;;;2.42;2.20;;;;;;;20.26;34.73;101333.59;5044821;28;20048;-66
2023/04/28 05:16:58;;;;;;;3.95;2.30;;;;;;;20.24;34.74;101325.84;5065158;28;20040;-66
2023/04/28 05:19:29;;;;;;;4.00;2.20;;;;;;;20.36;34.49;101329.78;5048786;28;20040;-66
2023/04/28 05:21:54;;;;;;;3.13;2.28;;;;;;;20.25;34.85;101326.66;5064786;28;20033;-65
2023/04/28 05:24:24;;;;;;;2.30;2.10;;;;;;;20.27;34.70;101320.22;5062268;28;20242;-66
2023/04/28 05:26:51;;;;;;;3.08;2.28;;;;;;;20.27;34.66;101316.75;5043088;28;20067;-66
2023/04/28 05:29:18;;;;;;;2.65;2.30;;;;;;;20.26;34.73;101323.03;5047209;28;20032;-66
2023/04/28 05:31:43;;;;;;;3.10;2.15;;;;;;;20.30;34.66;101325.19;5065171;28;20032;-65
2023/04/28 05:34:09;;;;;;;2.78;2.42;;;;;;;20.21;34.81;101323.53;5043722;28;20037;-65
2023/04/28 05:36:34;;;;;;;2.88;2.40;;;;;;;20.23;34.97;101318.91;5046522;28;20043;-66
2023/04/28 05:39:00;;;;;;;2.22;2.00;;;;;;;20.27;34.80;101322.03;5047401;28;20037;-66
2023/04/28 05:41:26;;;;;;;3.22;2.00;;;;;;;20.27;34.71;101312.28;5070217;28;20040;-66
2023/04/28 05:43:53;;;;;;;2.45;2.17;;;;;;;20.27;34.65;101319.38;5059098;28;20037;-65
2023/04/28 05:46:19;;;;;;;4.30;2.13;;;;;;;20.26;34.65;101315.91;5057079;28;20098;-65
2023/04/28 05:48:45;;;;;;;3.00;2.30;;;;;;;20.21;34.61;101313.78;5044532;28;20071;-65
2023/04/28 05:51:11;;;;;;;2.78;2.25;;;;;;;20.15;34.82;101311.84;5047874;28;20056;-66
2023/04/28 05:53:36;;;;;;;2.40;2.20;;;;;;;20.23;34.72;101309.16;5062560;28;20113;-65
2023/04/28 05:56:02;;;;;;;2.85;2.20;;;;;;;20.23;34.96;101311.81;5044311;28;20036;-66
2023/04/28 05:58:28;;;;;;;2.65;2.15;;;;;;;20.17;34.69;101319.59;5041896;28;20454;-66
2023/04/28 06:00:55;;;;;;;2.47;1.95;;;;;;;20.23;34.74;101313.63;5045816;28;20021;-66
2023/04/28 06:03:20;;;;;;;4.03;2.30;;;;;;;20.20;34.64;101298.91;5041135;28;20032;-65
2023/04/28 06:05:47;;;;;;;3.00;2.30;;;;;;;20.14;34.91;101307.53;5044942;28;20054;-65
2023/04/28 06:08:13;;;;;;;2.55;2.05;;;;;;;20.18;34.77;101316.78;5045031;28;20066;-66
2023/04/28 06:10:39;;;;;;;3.85;2.35;;;;;;;20.24;34.55;101304.69;5063409;28;20486;-66
2023/04/28 06:13:05;;;;;;;3.65;2.25;;;;;;;20.23;34.75;101303.88;5062401;28;20044;-65
2023/04/28 06:15:32;;;;;;;2.88;2.35;;;;;;;20.14;34.83;101301.44;5049239;28;20032;-66
2023/04/28 06:17:58;;;;;;;3.42;2.35;;;;;;;20.24;34.60;101302.03;5045990;28;20064;-66
2023/04/28 06:20:24;;;;;;;3.20;2.45;;;;;;;20.18;34.68;101313.31;5061677;28;20749;-65
2023/04/28 06:22:50;;;;;;;2.33;1.98;;;;;;;20.14;34.80;101312.00;5042006;28;20040;-65
2023/04/28 06:25:16;;;;;;;2.88;2.22;;;;;;;20.12;34.89;101311.34;5038405;28;20513;-65
2023/04/28 06:27:45;;;;;;;3.40;2.30;;;;;;;20.14;34.85;101302.25;5043806;28;20061;-67
2023/04/28 06:30:21;;;;;;;2.58;2.30;;;;;;;20.19;34.81;101305.22;5043775;28;20063;-65
2023/04/28 06:32:46;;;;;;;2.90;2.13;;;;;;;20.16;34.72;101294.16;5059790;28;20036;-65
2023/04/28 06:35:12;;;;;;;3.08;2.17;;;;;;;20.19;34.73;101293.81;5046659;28;20053;-66
2023/04/28 06:37:38;;;;;;;2.50;2.15;;;;;;;20.11;34.91;101283.28;5022247;28;20063;-66
2023/04/28 06:40:04;;;;;;;2.85;2.35;;;;;;;20.27;34.65;101285.00;5060436;28;20524;-66
2023/04/28 06:42:29;;;;;;;2.28;1.90;;;;;;;20.32;34.50;101286.16;5044375;28;20032;-65
2023/04/28 06:44:59;;;;;;;2.60;1.92;;;;;;;20.76;33.84;101282.97;5061029;28;20040;-65
2023/04/28 06:47:26;;;;;;;1.92;1.70;;;;;;;21.51;32.93;101258.44;5044142;28;20552;-65
2023/04/28 06:49:52;;;;;;;2.63;2.22;;;;;;;22.00;32.48;101266.69;5059351;28;20072;-66
2023/04/28 06:52:20;;;;;;;1.92;1.73;;;;;;;22.12;32.02;101265.28;5044881;28;20051;-66
2023/04/28 06:54:46;;;;;;;2.38;1.95;;;;;;;22.10;31.97;101255.84;5042669;28;20746;-67
2023/04/28 06:57:11;;;;;;;1.92;1.77;;;;;;;22.01;32.03;101253.25;5040554;28;20040;-65
2023/04/28 06:59:37;;;;;;;3.60;2.20;;;;;;;21.93;32.76;101257.84;5063768;28;20059;-66
2023/04/28 07:02:02;;;;;;;2.58;1.80;;;;;;;21.78;32.50;101251.72;5058197;28;20040;-65
2023/04/28 07:04:28;;;;;;;2.83;2.30;;;;;;;21.57;33.02;101266.50;5060262;28;20111;-64
2023/04/28 07:06:53;;;;;;;2.30;2.10;;;;;;;21.63;33.02;101264.94;5058219;28;21895;-66
2023/04/28 07:09:19;;;;;;;2.95;2.00;;;;;;;21.54;33.10;101266.84;5060145;28;20086;-63
2023/04/28 07:11:45;;;;;;;2.63;2.08;;;;;;;21.53;33.15;101264.38;5061579;28;20040;-64
2023/04/28 07:14:10;;;;;;;3.55;2.10;;;;;;;21.54;32.98;101255.41;5062498;28;20045;-66
2023/04/28 07:16:36;;;;;;;2.80;2.28;;;;;;;21.49;33.11;101236.59;5065265;28;20662;-66
2023/04/28 07:19:01;;;;;;;2.17;1.98;;;;;;;21.46;33.51;101248.38;5052612;28;20127;-66
2023/04/28 07:21:27;;;;;;;2.58;1.88;;;;;;;21.13;33.63;101203.59;5065672;28;20911;-66
2023/04/28 07:23:55;;;;;;;2.20;2.00;;;;;;;21.38;33.40;101246.63;5069988;28;20056;-66
2023/04/28 07:26:24;;;;;;;2.20;2.00;;;;;;;21.39;33.68;101247.47;5061024;28;20387;-64
2023/04/28 07:28:50;;;;;;;2.53;1.80;;;;;;;21.28;33.56;101235.47;5064191;28;20033;-64
2023/04/28 07:31:16;;;;;;;1.92;1.60;;;;;;;21.25;33.80;101242.94;5060035;28;20048;-64
2023/04/28 07:33:41;;;;;;;2.00;1.85;;;;;;;21.25;33.53;101249.06;5061080;28;20041;-63
2023/04/28 07:36:07;;;;;;;2.70;2.13;;;;;;;21.24;33.68;101247.44;5058221;28;20033;-66
2023/04/28 07:38:36;;;;;;;1.98;1.70;;;;;;;21.27;33.73;101238.28;5060453;28;20044;-64
2023/04/28 07:41:02;;;;;;;4.30;2.35;;;;;;;21.07;33.98;101224.69;5061707;28;20543;-64
2023/04/28 07:43:28;;;;;;;1.90;1.77;;;;;;;21.13;33.89;101245.97;5064063;28;20107;-64
2023/04/28 07:45:54;;;;;;;3.42;2.33;;;;;;;21.15;33.83;101240.50;5062491;28;20051;-65
2023/04/28 07:48:19;;;;;;;2.22;2.03;;;;;;;21.06;34.26;101244.22;5060733;28;20759;-64
2023/04/28 07:50:45;;;;;;;2.67;2.08;;;;;;;21.06;34.14;101241.59;5063554;28;20029;-67
2023/04/28 07:53:11;;;;;;;2.70;1.95;;;;;;;20.96;33.98;101228.56;5065206;28;20489;-65
2023/04/28 07:55:36;;;;;;;2.58;2.00;;;;;;;21.04;34.10;101235.66;5059271;28;20481;-65
2023/04/28 07:58:02;;;;;;;2.65;2.08;;;;;;;20.98;34.45;101236.34;5061850;28;20469;-63
2023/04/28 08:00:27;;;;;;;2.28;1.80;;;;;;;20.92;34.14;101224.63;5061511;28;20145;-64
2023/04/28 08:02:53;;;;;;;2.45;2.10;;;;;;;20.94;34.46;101220.00;5062768;28;20420;-64
2023/04/28 08:05:19;;;;;;;2.67;2.08;;;;;;;20.92;34.44;101219.34;5061498;28;20066;-65
2023/04/28 08:07:44;;;;;;;4.45;2.00;;;;;;;20.95;34.26;101215.50;5062079;28;20033;-65
2023/04/28 08:10:10;;;;;;;2.15;1.90;;;;;;;20.92;34.25;101206.09;5060980;28;20055;-64
2023/04/28 08:12:37;;;;;;;4.28;2.20;;;;;;;21.00;34.03;101218.44;5059978;28;20032;-66
2023/04/28 08:15:03;;;;;;;3.03;1.95;;;;;;;20.95;34.30;101218.97;5062179;28;20033;-64
2023/04/28 08:17:28;;;;;;;2.95;1.98;;;;;;;20.94;34.17;101206.75;5065394;28;20690;-65
2023/04/28 08:19:54;;;;;;;2.63;2.30;;;;;;;20.91;34.38;101203.63;5062590;28;20036;-65
2023/04/28 08:22:19;;;;;;;2.92;2.10;;;;;;;20.92;34.26;101210.59;5047360;28;20482;-64
2023/04/28 08:24:45;;;;;;;4.60;3.67;;;;;;;21.01;33.57;101209.53;5022341;28;20040;-66
2023/04/28 08:27:11;;;;;;;3.45;2.80;;;;;;;21.02;33.64;101216.47;5061809;28;20067;-69
2023/04/28 08:29:37;;;;;;;3.58;2.58;;;;;;;21.10;33.92;101221.69;5037197;28;20043;-69
2023/04/28 08:32:05;;;;;;;3.88;2.60;;;;;;;21.10;33.96;101227.81;5047228;28;20037;-68
2023/04/28 08:34:31;;;;;;;2.45;2.08;;;;;;;21.16;33.88;101234.19;5033067;28;20052;-68
2023/04/28 08:36:57;;;;;;;5.20;2.30;;;;;;;21.19;33.94;101238.34;5058393;28;20044;-69
2023/04/28 08:39:22;;;;;;;2.60;2.20;;;;;;;21.18;34.17;101237.50;5064809;28;20129;-68
2023/04/28 08:41:48;;;;;;;4.28;2.10;;;;;;;21.22;33.83;101237.97;5027085;28;20037;-68
2023/04/28 08:44:14;;;;;;;3.75;2.15;;;;;;;21.24;33.92;101233.31;5066091;28;20056;-67
2023/04/28 08:46:43;;;;;;;2.30;2.10;;;;;;;21.24;33.67;101231.53;5024545;28;20040;-68
2023/04/28 08:49:16;;;;;;;2.72;2.20;;;;;;;21.28;33.86;101229.34;5052911;28;20047;-67
2023/04/28 08:51:49;;;;;;;4.18;2.30;;;;;;;21.39;33.61;101219.16;5066890;28;20039;-68
2023/04/28 08:54:16;;;;;;;3.13;2.20;;;;;;;21.52;33.58;101221.16;5023020;28;20040;-66
2023/04/28 08:56:44;;;;;;;2.60;2.40;;;;;;;21.45;33.59;101228.19;5066315;28;20040;-66
2023/04/28 08:59:11;;;;;;;3.03;2.30;;;;;;;21.41;33.74;101233.03;5017166;28;20043;-66
2023/04/28 09:01:37;;;;;;;3.05;2.22;;;;;;;21.47;34.01;101212.09;5068341;28;20048;-66
2023/04/28 09:04:03;;;;;;;2.95;2.03;;;;;;;21.48;33.74;101217.22;5031066;28;20746;-65
2023/04/28 09:06:37;;;;;;;3.00;2.38;;;;;;;21.48;33.86;101209.28;5054256;28;20062;-65
2023/04/28 09:09:17;;;;;;;2.65;2.22;;;;;;;21.62;33.46;101213.78;5065434;28;20052;-66
2023/04/28 09:11:58;;;;;;;2.20;2.00;;;;;;;21.71;33.41;101212.66;5020503;28;20040;-65
2023/04/28 09:14:24;;;;;;;2.20;2.00;;;;;;;21.73;33.55;101209.84;5061436;28;20033;-65
2023/04/28 09:16:50;;;;;;;2.30;2.10;;;;;;;21.89;33.29;101222.91;5028160;28;20048;-66
2023/04/28 09:19:16;;;;;;;2.53;2.00;;;;;;;21.93;32.86;101210.13;5066828;28;20083;-65
2023/04/28 09:21:53;;;;;;;2.38;2.00;;;;;;;21.98;32.76;101210.38;5046919;28;20028;-65
2023/04/28 09:24:29;;;;;;;3.13;2.50;;;;;;;21.97;33.07;101201.59;5064215;28;20108;-67
2023/04/28 09:26:55;;;;;;;2.55;2.10;;;;;;;21.99;33.00;101199.59;5028168;28;21644;-67
2023/04/28 09:29:21;;;;;;;2.53;2.17;;;;;;;22.01;32.83;101178.19;5065422;28;20037;-67
2023/04/28 09:31:47;;;;;;;1.88;1.77;;;;;;;22.01;32.91;101192.25;5053281;28;20043;-67
2023/04/28 09:34:12;;;;;;;2.47;2.10;;;;;;;22.20;32.36;101185.59;5068146;28;20440;-67
2023/04/28 09:36:38;;;;;;;2.65;2.10;;;;;;;22.18;32.58;101186.78;5047958;28;20074;-66
2023/04/28 09:39:04;;;;;;;1.95;1.85;;;;;;;22.22;32.46;101186.22;5042154;28;20051;-66
2023/04/28 09:41:41;;;;;;;2.25;2.03;;;;;;;22.19;32.92;101183.94;5071563;28;20036;-67
2023/04/28 09:44:20;;;;;;;2.63;2.05;;;;;;;22.11;32.84;101176.09;5052874;28;20577;-66
2023/04/28 09:46:46;;;;;;;2.08;1.90;;;;;;;22.17;32.74;101172.69;5028222;28;20050;-67
2023/04/28 09:49:12;;;;;;;3.20;2.00;;;;;;;22.13;32.59;101158.16;5071423;28;20056;-67
2023/04/28 09:51:39;;;;;;;4.45;2.20;;;;;;;22.18;33.00;101158.41;5039156;28;20064;-66
2023/04/28 09:54:05;;;;;;;2.58;2.30;;;;;;;22.15;32.77;101152.69;5063462;28;20451;-67
2023/04/28 09:56:34;;;;;;;2.58;2.00;;;;;;;22.07;33.17;101142.16;5055906;28;20040;-67
2023/04/28 09:59:01;;;;;;;1.85;1.75;;;;;;;22.01;33.32;101136.56;5066481;28;20075;-68
2023/04/28 10:01:35;;;;;;;2.45;2.22;;;;;;;22.08;33.25;101127.88;5031067;28;20032;-67
2023/04/28 10:04:03;;;;;;;3.53;2.17;;;;;;;22.01;33.28;101133.09;5070384;28;20036;-67
2023/04/28 10:06:29;;;;;;;2.20;1.77;;;;;;;21.97;33.04;101131.84;5032639;28;20047;-67
2023/04/28 10:08:56;;;;;;;3.17;2.88;;;;;;;21.99;33.14;101127.16;5061972;28;20053;-67
2023/04/28 10:11:24;;;;;;;2.17;1.98;;;;;;;21.98;33.03;101129.00;5028324;28;20044;-66
2023/04/28 10:13:52;;;;;;;2.13;1.90;;;;;;;21.97;33.30;101130.00;5060385;28;20051;-66
2023/04/28 10:16:18;;;;;;;2.80;1.88;;;;;;;21.90;33.39;101121.16;5050112;28;20044;-67
2023/04/28 10:18:44;;;;;;;2.30;2.03;;;;;;;21.97;33.52;101129.19;5038066;28;20664;-68
2023/04/28 10:21:11;;;;;;;2.65;2.30;;;;;;;21.99;33.20;101127.16;5057054;28;20112;-66
2023/04/28 10:23:58;;;;;;;3.13;2.30;;;;;;;21.93;33.41;101122.63;5052813;28;20119;-67
2023/04/28 10:26:49;;;;;;;3.05;1.98;;;;;;;21.90;33.56;101099.97;5071869;28;20139;-67
2023/04/28 10:29:15;;;;;;;2.22;2.08;;;;;;;21.95;33.66;101108.16;5028351;28;20735;-67
2023/04/28 10:32:15;;;;;;;2.55;1.77;;;;;;;21.89;33.37;101111.53;5070686;28;20066;-68
2023/04/28 10:34:41;;;;;;;2.88;1.80;;;;;;;21.82;33.40;101094.75;5026012;28;20542;-65
2023/04/28 10:37:06;;;;;;;2.60;1.90;;;;;;;21.93;33.63;101096.09;5074788;28;20120;-67
2023/04/28 10:39:32;;;;;;;3.70;1.95;;;;;;;21.83;33.70;101085.78;5049060;28;20053;-67
2023/04/28 10:41:58;;;;;;;2.30;2.10;;;;;;;21.90;33.62;101097.31;5068231;28;20043;-67
2023/04/28 10:44:29;;;;;;;2.03;1.80;;;;;;;21.91;33.39;101092.81;5030230;28;20040;-66
2023/04/28 10:47:08;;;;;;;2.25;2.00;;;;;;;21.90;33.54;101088.50;5066364;28;20020;-67
2023/04/28 10:49:59;;;;;;;3.10;1.70;;;;;;;21.93;33.42;101091.63;5031875;28;20040;-66
2023/04/28 10:52:37;;;;;;;2.55;2.13;;;;;;;21.92;33.77;101095.28;5065643;28;20407;-66
2023/04/28 10:55:32;;;;;;;1.80;1.70;;;;;;;21.89;33.67;101097.47;5026941;28;20138;-66
2023/04/28 10:58:17;;;;;;;2.70;2.40;;;;;;;22.07;33.35;101094.44;5076221;28;20046;-66
2023/04/28 11:00:49;;;;;;;2.03;1.83;;;;;;;22.10;33.63;101091.44;5025357;28;20119;-64
2023/04/28 11:03:46;;;;;;;2.30;2.10;;;;;;;22.18;33.31;101100.06;5062911;28;20135;-66
2023/04/28 11:06:25;;;;;;;2.35;2.05;;;;;;;22.24;33.72;101101.97;5060172;28;20868;-66
2023/04/28 11:08:52;;;;;;;2.35;1.88;;;;;;;22.29;33.31;101094.28;5004493;28;20243;-67
2023/04/28 11:11:24;;;;;;;3.03;2.20;;;;;;;22.29;33.68;101096.94;5070704;28;20033;-67
2023/04/28 11:13:51;;;;;;;2.22;1.90;;;;;;;22.33;33.43;101083.28;5015713;28;20040;-67
2023/04/28 11:16:19;;;;;;;2.38;2.03;;;;;;;22.36;33.48;101081.06;5060326;28;20038;-67
2023/04/28 11:18:49;;;;;;;3.30;1.98;;;;;;;22.38;33.77;101076.38;5041031;28;20052;-67
2023/04/28 11:21:15;;;;;;;1.98;1.85;;;;;;;22.41;33.46;101069.88;5063920;28;20345;-67
2023/04/28 11:23:42;;;;;;;3.25;1.98;;;;;;;22.45;33.56;101064.00;5039815;28;20569;-65
2023/04/28 11:26:07;;;;;;;1.90;1.80;;;;;;;22.47;33.67;101054.03;5048903;28;20049;-65
2023/04/28 11:28:35;;;;;;;2.72;2.20;;;;;;;22.50;33.70;101058.94;5046396;28;20075;-69